createdAt,value
2023-03-06T00:02:14.098Z,4.60
2023-03-06T00:05:36.242Z,4.50
2023-03-06T00:08:58.310Z,4.50
2023-03-06T00:12:20.266Z,4.50
2023-03-06T00:15:42.780Z,4.50
2023-03-06T00:19:04.786Z,4.40
2023-03-06T00:22:26.882Z,4.50
2023-03-06T00:25:48.887Z,4.40
2023-03-06T00:29:11.083Z,4.40
2023-03-06T00:32:33.155Z,4.40
2023-03-06T00:35:56.936Z,4.30
2023-03-06T00:39:19.040Z,4.20
2023-03-06T00:42:41.536Z,4.10
2023-03-06T00:46:04.161Z,4.10
2023-03-06T00:49:26.160Z,4.10
2023-03-06T00:52:48.158Z,4.10
2023-03-06T00:56:10.479Z,4.20
2023-03-06T00:59:32.527Z,4.30
2023-03-06T01:02:54.512Z,4.60
2023-03-06T01:06:17.599Z,4.70
2023-03-06T01:09:39.634Z,4.90
2023-03-06T01:13:01.589Z,5.00
2023-03-06T01:16:24.009Z,5.10
2023-03-06T01:19:46.063Z,5.10
2023-03-06T01:23:08.997Z,5.20
2023-03-06T01:26:31.692Z,5.20
2023-03-06T01:29:53.665Z,5.20
2023-03-06T01:33:15.769Z,5.20
2023-03-06T01:36:37.872Z,5.30
2023-03-06T01:40:00.414Z,5.30
2023-03-06T01:43:27.786Z,5.30
2023-03-06T01:46:49.803Z,5.30
2023-03-06T01:50:12.813Z,5.30
2023-03-06T01:53:34.871Z,5.40
2023-03-06T01:57:05.688Z,5.40
2023-03-06T02:00:29.628Z,5.50
2023-03-06T02:03:51.892Z,5.50
2023-03-06T02:07:15.777Z,5.60
2023-03-06T02:10:37.974Z,5.60
2023-03-06T02:14:00.100Z,5.60
2023-03-06T02:17:23.474Z,5.70
2023-03-06T02:20:54.076Z,5.70
2023-03-06T02:24:42.168Z,5.70
2023-03-06T02:28:06.551Z,5.70
2023-03-06T02:31:32.094Z,5.70
2023-03-06T02:34:56.535Z,5.70
2023-03-06T02:38:21.932Z,5.70
2023-03-06T02:41:43.986Z,5.70
2023-03-06T02:45:09.920Z,5.70
2023-03-06T02:48:31.893Z,5.70
2023-03-06T02:51:53.848Z,5.80
2023-03-06T02:55:15.865Z,5.80
2023-03-06T02:58:38.123Z,5.80
2023-03-06T03:02:00.156Z,5.80
2023-03-06T03:05:22.996Z,5.80
2023-03-06T03:08:52.277Z,5.90
2023-03-06T03:12:14.792Z,5.90
2023-03-06T03:15:36.854Z,5.90
2023-03-06T03:18:58.844Z,5.90
2023-03-06T03:22:22.176Z,5.90
2023-03-06T03:25:45.322Z,6.00
2023-03-06T03:29:09.795Z,5.90
2023-03-06T03:32:31.967Z,5.90
2023-03-06T03:36:01.843Z,5.90
2023-03-06T03:39:24.163Z,6.00
2023-03-06T03:42:46.311Z,6.00
2023-03-06T03:46:08.858Z,6.00
2023-03-06T03:49:31.826Z,5.90
2023-03-06T03:52:54.997Z,5.90
2023-03-06T03:56:17.133Z,5.90
2023-03-06T03:59:47.832Z,5.90
2023-03-06T04:03:17.196Z,5.90
2023-03-06T04:06:40.995Z,5.90
2023-03-06T04:10:03.159Z,6.00
2023-03-06T04:13:26.070Z,6.00
2023-03-06T04:16:48.667Z,6.00
2023-03-06T04:20:11.362Z,6.00
2023-03-06T04:23:33.648Z,6.00
2023-03-06T04:26:55.723Z,6.00
2023-03-06T04:30:18.730Z,6.00
2023-03-06T04:33:41.122Z,6.00
2023-03-06T04:37:05.023Z,6.00
2023-03-06T04:40:29.556Z,6.00
2023-03-06T04:43:52.321Z,6.00
2023-03-06T04:47:14.390Z,6.10
2023-03-06T04:50:38.016Z,6.10
2023-03-06T04:53:59.964Z,6.10
2023-03-06T04:57:22.371Z,6.10
2023-03-06T05:00:44.483Z,6.20
2023-03-06T05:04:06.556Z,6.20
2023-03-06T05:07:28.572Z,6.30
2023-03-06T05:10:56.631Z,6.20
2023-03-06T05:14:18.738Z,6.10
2023-03-06T05:17:41.184Z,6.10
2023-03-06T05:21:04.841Z,6.10
2023-03-06T05:24:27.199Z,6.00
2023-03-06T05:27:49.379Z,6.00
2023-03-06T05:31:12.134Z,6.00
2023-03-06T05:34:35.595Z,6.00
2023-03-06T05:37:57.921Z,6.00
2023-03-06T05:41:19.993Z,6.00
2023-03-06T05:44:41.959Z,6.00
2023-03-06T05:48:04.456Z,6.00
2023-03-06T05:51:26.795Z,6.00
2023-03-06T05:54:53.783Z,5.90
2023-03-06T05:58:16.586Z,5.80
2023-03-06T06:01:38.692Z,5.80
2023-03-06T06:05:02.713Z,5.80
2023-03-06T06:08:26.210Z,5.80
2023-03-06T06:11:58.790Z,5.80
2023-03-06T06:15:20.808Z,5.80
2023-03-06T06:18:43.563Z,5.90
2023-03-06T06:22:05.609Z,6.00
2023-03-06T06:25:27.628Z,6.00
2023-03-06T06:28:49.653Z,6.10
2023-03-06T06:32:11.754Z,6.10
2023-03-06T06:35:37.278Z,6.30
2023-03-06T06:38:59.641Z,6.30
2023-03-06T06:42:31.499Z,6.40
2023-03-06T06:46:19.556Z,6.40
2023-03-06T06:49:41.359Z,6.50
2023-03-06T06:53:03.442Z,6.60
2023-03-06T06:56:25.976Z,6.80
2023-03-06T06:59:48.001Z,6.80
2023-03-06T07:03:13.064Z,7.00
2023-03-06T07:06:35.006Z,7.10
2023-03-06T07:09:57.133Z,7.20
2023-03-06T07:13:19.160Z,7.20
2023-03-06T07:16:41.303Z,7.30
2023-03-06T07:20:04.509Z,7.40
2023-03-06T07:23:27.305Z,7.40
2023-03-06T07:26:49.279Z,7.50
2023-03-06T07:30:13.539Z,7.70
2023-03-06T07:33:35.850Z,7.90
2023-03-06T07:36:57.794Z,8.00
2023-03-06T07:40:20.884Z,7.90
2023-03-06T07:43:44.268Z,8.00
2023-03-06T07:47:07.415Z,8.00
2023-03-06T07:50:29.508Z,8.10
2023-03-06T07:53:51.623Z,8.20
2023-03-06T07:57:13.771Z,8.20
2023-03-06T08:00:35.783Z,8.30
2023-03-06T08:03:57.867Z,8.30
2023-03-06T08:07:20.483Z,8.40
2023-03-06T08:10:48.054Z,8.70
2023-03-06T08:14:09.972Z,8.80
2023-03-06T08:17:31.961Z,8.80
2023-03-06T08:21:09.012Z,9.00
2023-03-06T08:24:31.077Z,9.40
2023-03-06T08:27:53.058Z,9.20
2023-03-06T08:31:36.998Z,9.20
2023-03-06T08:34:58.959Z,9.60
2023-03-06T08:38:21.004Z,10.00
2023-03-06T08:41:43.336Z,10.50
2023-03-06T08:45:06.633Z,11.30
2023-03-06T08:48:28.785Z,11.40
2023-03-06T08:51:50.735Z,11.60
2023-03-06T08:55:14.986Z,11.90
2023-03-06T08:58:37.173Z,11.50
2023-03-06T09:01:59.238Z,11.50
2023-03-06T09:05:21.332Z,11.20
2023-03-06T09:08:44.593Z,11.20
2023-03-06T09:12:06.953Z,11.40
2023-03-06T09:15:29.118Z,11.40
2023-03-06T09:18:53.132Z,11.50
2023-03-06T09:22:15.227Z,11.70
2023-03-06T09:25:37.257Z,12.10
2023-03-06T09:28:59.205Z,12.20
2023-03-06T09:32:22.586Z,12.80
2023-03-06T09:35:52.977Z,13.10
2023-03-06T09:39:14.972Z,13.40
2023-03-06T09:42:37.138Z,13.40
2023-03-06T09:45:59.731Z,14.20
2023-03-06T09:49:58.596Z,14.80
2023-03-06T09:53:47.238Z,14.60
2023-03-06T09:57:23.050Z,14.60
2023-03-06T10:01:17.215Z,15.00
2023-03-06T10:04:43.973Z,15.10
2023-03-06T10:08:18.451Z,14.90
2023-03-06T10:11:54.282Z,15.50
2023-03-06T10:15:34.678Z,15.50
2023-03-06T10:19:02.293Z,15.40
2023-03-06T10:22:52.604Z,15.40
2023-03-06T10:26:32.620Z,15.80
2023-03-06T10:30:22.521Z,15.40
2023-03-06T10:34:21.967Z,15.40
2023-03-06T10:37:43.922Z,15.70
2023-03-06T10:41:11.880Z,15.60
2023-03-06T10:44:33.821Z,14.80
2023-03-06T10:48:12.017Z,13.60
2023-03-06T10:51:36.687Z,13.40
2023-03-06T10:55:23.212Z,13.80
2023-03-06T10:58:45.188Z,13.90
2023-03-06T11:02:42.234Z,14.30
2023-03-06T11:06:09.510Z,14.20
2023-03-06T11:09:33.656Z,14.50
2023-03-06T11:13:07.660Z,14.20
2023-03-06T11:16:30.714Z,14.30
2023-03-06T11:20:49.907Z,14.40
2023-03-06T11:24:19.780Z,14.50
2023-03-06T11:27:45.520Z,15.10
2023-03-06T11:31:10.880Z,15.30
2023-03-06T11:34:54.921Z,15.40
2023-03-06T11:38:40.383Z,15.80
2023-03-06T11:42:11.996Z,16.10
2023-03-06T11:45:45.273Z,16.40
2023-03-06T11:49:29.100Z,15.80
2023-03-06T11:53:26.484Z,15.40
2023-03-06T11:57:02.364Z,15.20
2023-03-06T12:00:50.290Z,15.70
2023-03-06T12:04:24.282Z,15.40
2023-03-06T12:08:01.584Z,15.70
2023-03-06T12:11:32.803Z,15.80
2023-03-06T12:14:58.354Z,14.60
2023-03-06T12:18:35.457Z,14.80
2023-03-06T12:22:09.299Z,14.70
2023-03-06T12:25:39.759Z,14.70
2023-03-06T12:29:12.334Z,15.40
2023-03-06T12:32:55.040Z,16.20
2023-03-06T12:36:50.955Z,16.80
2023-03-06T12:40:28.201Z,17.50
2023-03-06T12:44:15.195Z,17.10
2023-03-06T12:47:43.447Z,16.90
2023-03-06T12:51:07.515Z,16.80
2023-03-06T12:54:31.416Z,16.60
2023-03-06T12:57:54.018Z,16.70
2023-03-06T13:01:55.195Z,16.90
2023-03-06T13:06:05.365Z,17.20
2023-03-06T13:09:30.439Z,16.90
2023-03-06T13:13:33.678Z,16.90
2023-03-06T13:17:15.631Z,16.80
2023-03-06T13:20:45.076Z,16.80
2023-03-06T13:24:17.864Z,16.70
2023-03-06T13:27:54.735Z,16.60
2023-03-06T13:31:33.692Z,16.90
2023-03-06T13:34:55.975Z,17.00
2023-03-06T13:38:31.484Z,17.20
2023-03-06T13:41:58.906Z,17.20
2023-03-06T13:45:50.616Z,17.60
2023-03-06T13:49:24.191Z,17.40
2023-03-06T13:53:08.105Z,17.00
2023-03-06T13:56:55.924Z,16.70
2023-03-06T14:00:51.674Z,16.30
2023-03-06T14:04:32.842Z,15.90
2023-03-06T14:08:10.960Z,16.00
2023-03-06T14:11:35.278Z,16.30
2023-03-06T14:15:01.941Z,16.40
2023-03-06T14:18:38.699Z,16.50
2023-03-06T14:22:04.200Z,16.40
2023-03-06T14:25:31.703Z,16.00
2023-03-06T14:29:01.123Z,15.70
2023-03-06T14:32:23.476Z,15.30
2023-03-06T14:35:52.256Z,15.20
2023-03-06T14:39:34.674Z,15.10
2023-03-06T14:43:17.741Z,15.20
2023-03-06T14:46:39.930Z,15.00
2023-03-06T14:50:32.607Z,14.70
2023-03-06T14:54:00.699Z,14.40
2023-03-06T14:57:23.779Z,14.50
2023-03-06T15:00:50.037Z,14.30
2023-03-06T15:04:19.593Z,14.40
2023-03-06T15:07:42.908Z,14.50
2023-03-06T15:11:06.963Z,14.70
2023-03-06T15:14:47.837Z,14.90
2023-03-06T15:18:55.438Z,15.10
2023-03-06T15:22:31.116Z,15.30
2023-03-06T15:25:59.944Z,15.50
2023-03-06T15:29:23.865Z,15.40
2023-03-06T15:32:45.854Z,15.30
2023-03-06T15:36:20.587Z,15.10
2023-03-06T15:39:43.318Z,14.90
2023-03-06T15:43:10.879Z,14.90
2023-03-06T15:46:33.292Z,14.80
2023-03-06T15:49:55.520Z,14.70
2023-03-06T15:53:17.529Z,14.60
2023-03-06T15:56:41.802Z,14.60
2023-03-06T16:00:04.970Z,14.60
2023-03-06T16:03:34.020Z,14.20
2023-03-06T16:06:59.672Z,14.00
2023-03-06T16:10:27.586Z,13.90
2023-03-06T16:13:49.811Z,13.90
2023-03-06T16:17:12.325Z,13.70
2023-03-06T16:20:34.384Z,13.60
2023-03-06T16:23:56.333Z,13.50
2023-03-06T16:27:19.851Z,13.40
2023-03-06T16:30:44.005Z,13.30
2023-03-06T16:34:05.987Z,13.20
2023-03-06T16:37:27.960Z,13.10
2023-03-06T16:40:49.948Z,12.90
2023-03-06T16:44:12.600Z,12.80
2023-03-06T16:47:34.779Z,12.60
2023-03-06T16:50:56.764Z,12.40
2023-03-06T16:54:19.419Z,12.20
2023-03-06T16:57:41.463Z,12.00
2023-03-06T17:01:04.084Z,11.80
2023-03-06T17:04:26.131Z,11.70
2023-03-06T17:07:50.296Z,11.40
2023-03-06T17:11:12.976Z,11.10
2023-03-06T17:14:35.031Z,10.90
2023-03-06T17:17:57.890Z,10.60
2023-03-06T17:21:19.961Z,10.50
2023-03-06T17:24:42.488Z,10.30
2023-03-06T17:28:04.518Z,10.20
2023-03-06T17:31:27.725Z,10.10
2023-03-06T17:34:49.753Z,9.90
2023-03-06T17:38:11.712Z,9.80
2023-03-06T17:41:34.330Z,9.70
2023-03-06T17:44:57.400Z,9.50
2023-03-06T17:48:19.336Z,9.40
2023-03-06T17:51:41.334Z,9.30
2023-03-06T17:55:03.735Z,9.20
2023-03-06T17:58:26.661Z,9.10
2023-03-06T18:01:48.847Z,9.10
2023-03-06T18:05:12.207Z,9.00
2023-03-06T18:08:35.221Z,8.90
2023-03-06T18:11:57.270Z,8.80
2023-03-06T18:15:19.822Z,8.60
2023-03-06T18:18:42.692Z,8.50
2023-03-06T18:22:05.496Z,8.40
2023-03-06T18:25:30.857Z,8.30
2023-03-06T18:28:56.825Z,8.10
2023-03-06T18:32:19.480Z,8.00
2023-03-06T18:35:44.291Z,8.10
2023-03-06T18:39:09.055Z,8.20
2023-03-06T18:42:31.721Z,8.30
2023-03-06T18:45:58.184Z,8.30
2023-03-06T18:49:23.839Z,8.40
2023-03-06T18:52:46.366Z,8.40
2023-03-06T18:56:11.139Z,8.40
2023-03-06T18:59:33.677Z,8.40
2023-03-06T19:02:56.341Z,8.50
2023-03-06T19:06:19.126Z,8.60
2023-03-06T19:09:42.768Z,8.60
2023-03-06T19:13:05.709Z,8.70
2023-03-06T19:16:29.859Z,8.70
2023-03-06T19:19:52.454Z,8.70
2023-03-06T19:23:15.690Z,8.60
2023-03-06T19:26:38.433Z,8.50
2023-03-06T19:30:01.307Z,8.50
2023-03-06T19:33:24.292Z,8.40
2023-03-06T19:36:46.696Z,8.40
2023-03-06T19:40:09.804Z,8.40
2023-03-06T19:43:31.845Z,8.50
2023-03-06T19:46:53.757Z,8.50
2023-03-06T19:50:16.120Z,8.60
2023-03-06T19:53:41.347Z,8.60
2023-03-06T19:57:03.974Z,8.60
2023-03-06T20:00:26.942Z,8.60
2023-03-06T20:03:50.696Z,8.60
2023-03-06T20:07:13.220Z,8.60
2023-03-06T20:10:37.208Z,8.60
2023-03-06T20:14:01.619Z,8.50
2023-03-06T20:17:23.591Z,8.50
2023-03-06T20:20:45.932Z,8.50
2023-03-06T20:24:09.953Z,8.40
2023-03-06T20:27:32.061Z,8.40
2023-03-06T20:30:54.111Z,8.40
2023-03-06T20:34:16.186Z,8.40
2023-03-06T20:37:38.393Z,8.40
2023-03-06T20:41:00.558Z,8.40
2023-03-06T20:44:23.219Z,8.40
2023-03-06T20:47:47.200Z,8.40
2023-03-06T20:51:19.963Z,8.40
2023-03-06T20:54:42.733Z,8.40
2023-03-06T20:58:05.785Z,8.30
2023-03-06T21:01:30.231Z,8.20
2023-03-06T21:04:53.215Z,8.20
2023-03-06T21:08:16.510Z,8.10
2023-03-06T21:11:38.481Z,7.90
2023-03-06T21:15:00.460Z,7.80
2023-03-06T21:18:22.489Z,7.60
2023-03-06T21:21:44.442Z,7.50
2023-03-06T21:25:06.543Z,7.40
2023-03-06T21:28:29.375Z,7.30
2023-03-06T21:31:51.386Z,7.30
2023-03-06T21:35:14.045Z,7.20
2023-03-06T21:38:36.547Z,7.00
2023-03-06T21:41:58.517Z,7.00
2023-03-06T21:45:20.470Z,6.90
2023-03-06T21:48:42.447Z,6.70
2023-03-06T21:52:04.626Z,6.60
2023-03-06T21:55:26.686Z,6.50
2023-03-06T21:58:48.901Z,6.40
2023-03-06T22:02:11.475Z,6.30
2023-03-06T22:05:33.542Z,6.20
2023-03-06T22:08:57.046Z,6.20
2023-03-06T22:12:19.014Z,6.20
2023-03-06T22:15:48.837Z,6.10
2023-03-06T22:19:10.874Z,6.00
2023-03-06T22:22:32.933Z,5.90
2023-03-06T22:25:54.939Z,5.80
2023-03-06T22:29:16.911Z,5.70
2023-03-06T22:32:38.895Z,5.60
2023-03-06T22:36:07.606Z,5.70
2023-03-06T22:39:29.553Z,5.70
2023-03-06T22:42:51.644Z,5.60
2023-03-06T22:46:16.281Z,5.50
2023-03-06T22:49:38.468Z,5.40
2023-03-06T22:53:00.450Z,5.40
2023-03-06T22:56:22.978Z,5.40
2023-03-06T22:59:45.056Z,5.40
2023-03-06T23:03:07.000Z,5.40
2023-03-06T23:06:31.739Z,5.30
2023-03-06T23:09:53.868Z,5.40
2023-03-06T23:13:34.318Z,5.50
2023-03-06T23:17:14.969Z,5.60
2023-03-06T23:20:55.675Z,5.80
2023-03-06T23:24:36.818Z,5.80
2023-03-06T23:27:58.787Z,5.90
2023-03-06T23:31:24.166Z,6.00
2023-03-06T23:34:48.602Z,6.00
2023-03-06T23:38:11.064Z,6.00
2023-03-06T23:41:33.332Z,6.10
2023-03-06T23:44:55.420Z,6.10
2023-03-06T23:48:17.835Z,6.10
2023-03-06T23:51:39.832Z,6.10
2023-03-06T23:55:01.875Z,6.10
2023-03-06T23:58:23.811Z,6.00
